createdAt,value
2023-01-27T00:02:22.506Z,98304.33
2023-01-27T00:05:26.629Z,98300.26
2023-01-27T00:08:29.939Z,98303.52
2023-01-27T00:11:51.609Z,98302.56
2023-01-27T00:14:54.799Z,98306.58
2023-01-27T00:17:58.119Z,98312.64
2023-01-27T00:21:19.700Z,98311.39
2023-01-27T00:24:37.966Z,98314.85
2023-01-27T00:27:41.188Z,98316.40
2023-01-27T00:30:44.333Z,98315.02
2023-01-27T00:33:49.582Z,98316.98
2023-01-27T00:36:52.771Z,98317.71
2023-01-27T00:39:55.962Z,98319.02
2023-01-27T00:42:59.241Z,98316.62
2023-01-27T00:46:02.970Z,98316.92
2023-01-27T00:49:06.344Z,98312.83
2023-01-27T00:52:09.543Z,98318.21
2023-01-27T00:55:16.011Z,98316.15
2023-01-27T00:58:21.372Z,98317.58
2023-01-27T01:01:24.615Z,98318.50
2023-01-27T01:04:28.796Z,98317.90
2023-01-27T01:07:32.044Z,98316.89
2023-01-27T01:10:38.849Z,98315.04
2023-01-27T01:13:43.337Z,98319.10
2023-01-27T01:16:46.493Z,98316.39
2023-01-27T01:19:49.708Z,98318.25
2023-01-27T01:22:52.953Z,98320.96
2023-01-27T01:25:57.517Z,98318.40
2023-01-27T01:29:00.744Z,98314.38
2023-01-27T01:32:04.222Z,98314.88
2023-01-27T01:35:08.309Z,98312.81
2023-01-27T01:38:11.988Z,98311.14
2023-01-27T01:41:18.999Z,98315.17
2023-01-27T01:44:32.840Z,98314.70
2023-01-27T01:47:36.249Z,98318.20
2023-01-27T01:50:42.961Z,98319.68
2023-01-27T01:53:50.846Z,98324.13
2023-01-27T01:56:58.558Z,98323.61
2023-01-27T02:00:09.475Z,98320.14
2023-01-27T02:03:18.700Z,98316.41
2023-01-27T02:06:22.301Z,98316.10
2023-01-27T02:09:28.365Z,98307.31
2023-01-27T02:12:31.739Z,98305.70
2023-01-27T02:15:35.577Z,98300.03
2023-01-27T02:18:43.048Z,98300.47
2023-01-27T02:21:49.672Z,98297.44
2023-01-27T02:25:00.327Z,98300.74
2023-01-27T02:28:08.475Z,98299.64
2023-01-27T02:31:12.404Z,98294.73
2023-01-27T02:34:20.939Z,98292.84
2023-01-27T02:37:25.296Z,98295.16
2023-01-27T02:40:30.335Z,98295.86
2023-01-27T02:43:33.914Z,98299.02
2023-01-27T02:46:37.995Z,98297.76
2023-01-27T02:49:41.360Z,98299.09
2023-01-27T02:52:44.649Z,98295.27
2023-01-27T02:55:48.202Z,98293.38
2023-01-27T02:58:51.404Z,98299.82
2023-01-27T03:02:00.169Z,98296.29
2023-01-27T03:05:05.143Z,98294.20
2023-01-27T03:08:08.813Z,98296.98
2023-01-27T03:11:12.479Z,98298.02
2023-01-27T03:14:15.794Z,98303.55
2023-01-27T03:17:37.807Z,98304.63
2023-01-27T03:20:42.185Z,98311.83
2023-01-27T03:23:49.097Z,98312.77
2023-01-27T03:26:55.722Z,98317.23
2023-01-27T03:30:07.018Z,98319.16
2023-01-27T03:33:10.825Z,98312.89
2023-01-27T03:36:58.170Z,98318.80
2023-01-27T03:40:19.839Z,98318.94
2023-01-27T03:43:41.559Z,98319.50
2023-01-27T03:46:45.026Z,98316.84
2023-01-27T03:49:48.197Z,98318.21
2023-01-27T03:53:03.654Z,98319.30
2023-01-27T03:56:07.286Z,98317.85
2023-01-27T03:59:10.451Z,98318.96
2023-01-27T04:02:32.035Z,98317.16
2023-01-27T04:05:53.743Z,98318.48
2023-01-27T04:08:57.456Z,98313.61
2023-01-27T04:12:04.578Z,98313.01
2023-01-27T04:15:08.684Z,98316.73
2023-01-27T04:18:12.113Z,98314.94
2023-01-27T04:21:15.338Z,98314.25
2023-01-27T04:24:24.478Z,98318.33
2023-01-27T04:27:27.839Z,98316.97
2023-01-27T04:30:31.111Z,98317.62
2023-01-27T04:33:34.338Z,98322.80
2023-01-27T04:36:37.654Z,98325.00
2023-01-27T04:39:41.859Z,98322.36
2023-01-27T04:42:45.123Z,98321.93
2023-01-27T04:45:51.042Z,98322.34
2023-01-27T04:48:54.360Z,98323.15
2023-01-27T04:51:57.541Z,98327.20
2023-01-27T04:55:00.720Z,98328.83
2023-01-27T04:58:05.077Z,98333.06
2023-01-27T05:01:08.198Z,98335.59
2023-01-27T05:04:11.377Z,98332.23
2023-01-27T05:07:14.775Z,98328.30
2023-01-27T05:10:18.233Z,98327.52
2023-01-27T05:13:21.519Z,98324.66
2023-01-27T05:16:25.590Z,98323.17
2023-01-27T05:19:29.117Z,98321.41
2023-01-27T05:22:32.283Z,98317.66
2023-01-27T05:25:35.517Z,98316.96
2023-01-27T05:28:41.582Z,98322.46
2023-01-27T05:31:44.949Z,98329.08
2023-01-27T05:34:48.177Z,98329.14
2023-01-27T05:37:51.379Z,98329.70
2023-01-27T05:41:04.105Z,98329.23
2023-01-27T05:44:07.363Z,98340.35
2023-01-27T05:47:10.581Z,98342.23
2023-01-27T05:50:13.831Z,98347.91
2023-01-27T05:53:18.661Z,98346.69
2023-01-27T05:56:23.322Z,98347.29
2023-01-27T05:59:26.565Z,98350.40
2023-01-27T06:02:29.821Z,98352.77
2023-01-27T06:05:33.130Z,98356.13
2023-01-27T06:08:38.001Z,98356.64
2023-01-27T06:11:41.212Z,98359.69
2023-01-27T06:14:44.437Z,98363.04
2023-01-27T06:17:47.647Z,98367.70
2023-01-27T06:20:51.102Z,98368.35
2023-01-27T06:23:54.438Z,98373.48
2023-01-27T06:26:57.638Z,98377.85
2023-01-27T06:30:00.874Z,98373.48
2023-01-27T06:33:05.039Z,98373.13
2023-01-27T06:36:10.795Z,98376.20
2023-01-27T06:39:14.061Z,98376.04
2023-01-27T06:42:17.297Z,98382.89
2023-01-27T06:45:20.583Z,98388.20
2023-01-27T06:48:24.399Z,98391.14
2023-01-27T06:51:27.634Z,98392.22
2023-01-27T06:54:30.923Z,98393.08
2023-01-27T06:57:34.797Z,98395.30
2023-01-27T07:00:39.667Z,98397.38
2023-01-27T07:03:44.776Z,98394.01
2023-01-27T07:06:48.369Z,98392.26
2023-01-27T07:09:52.964Z,98392.31
2023-01-27T07:13:07.076Z,98394.61
2023-01-27T07:16:10.300Z,98394.88
2023-01-27T07:19:13.725Z,98391.21
2023-01-27T07:22:16.889Z,98394.23
2023-01-27T07:25:20.335Z,98396.84
2023-01-27T07:28:24.006Z,98403.27
2023-01-27T07:31:27.788Z,98402.27
2023-01-27T07:34:31.045Z,98400.69
2023-01-27T07:37:35.622Z,98397.79
2023-01-27T07:40:40.882Z,98397.27
2023-01-27T07:43:44.157Z,98400.64
2023-01-27T07:46:47.461Z,98405.44
2023-01-27T07:49:50.614Z,98410.44
2023-01-27T07:52:53.926Z,98411.03
2023-01-27T07:55:59.975Z,98404.97
2023-01-27T07:59:04.520Z,98409.54
2023-01-27T08:02:10.431Z,98403.09
2023-01-27T08:05:13.751Z,98399.48
2023-01-27T08:08:19.047Z,98395.49
2023-01-27T08:11:22.383Z,98392.41
2023-01-27T08:14:25.698Z,98391.13
2023-01-27T08:17:29.952Z,98394.11
2023-01-27T08:20:33.339Z,98389.73
2023-01-27T08:23:37.037Z,98394.13
2023-01-27T08:26:40.377Z,98398.50
2023-01-27T08:29:43.899Z,98392.19
2023-01-27T08:32:49.299Z,98395.80
2023-01-27T08:35:52.651Z,98396.36
2023-01-27T08:38:56.978Z,98398.06
2023-01-27T08:42:00.674Z,98400.51
2023-01-27T08:45:04.260Z,98404.58
2023-01-27T08:48:07.591Z,98403.27
2023-01-27T08:51:13.873Z,98404.70
2023-01-27T08:54:17.140Z,98409.77
2023-01-27T08:57:20.521Z,98411.60
2023-01-27T09:00:24.355Z,98415.17
2023-01-27T09:03:28.182Z,98420.26
2023-01-27T09:06:31.574Z,98421.98
2023-01-27T09:09:35.145Z,98421.77
2023-01-27T09:12:38.602Z,98425.09
2023-01-27T09:15:45.125Z,98427.56
2023-01-27T09:18:49.631Z,98435.36
2023-01-27T09:21:52.937Z,98432.36
2023-01-27T09:24:56.309Z,98438.55
2023-01-27T09:28:00.495Z,98438.91
2023-01-27T09:31:05.553Z,98441.91
2023-01-27T09:34:08.938Z,98444.94
2023-01-27T09:37:14.158Z,98447.17
2023-01-27T09:40:43.960Z,98450.12
2023-01-27T09:44:02.570Z,98451.89
2023-01-27T09:47:19.905Z,98453.65
2023-01-27T09:50:47.198Z,98456.35
2023-01-27T09:54:15.269Z,98454.83
2023-01-27T09:57:26.693Z,98461.35
2023-01-27T10:00:48.469Z,98455.81
2023-01-27T10:04:13.041Z,98450.42
2023-01-27T10:07:38.204Z,98453.39
2023-01-27T10:10:50.308Z,98455.16
2023-01-27T10:14:19.713Z,98450.70
2023-01-27T10:17:44.762Z,98452.58
2023-01-27T10:21:01.120Z,98452.81
2023-01-27T10:24:59.687Z,98454.19
2023-01-27T10:28:17.371Z,98456.58
2023-01-27T10:31:36.039Z,98453.60
2023-01-27T10:34:51.321Z,98459.05
2023-01-27T10:38:20.430Z,98457.48
2023-01-27T10:41:57.267Z,98451.74
2023-01-27T10:45:21.402Z,98452.83
2023-01-27T10:48:39.717Z,98455.85
2023-01-27T10:51:50.239Z,98454.70
2023-01-27T10:55:15.374Z,98459.74
2023-01-27T10:58:55.329Z,98453.85
2023-01-27T11:02:14.643Z,98450.48
2023-01-27T11:05:30.564Z,98448.07
2023-01-27T11:08:39.714Z,98450.57
2023-01-27T11:11:46.008Z,98444.99
2023-01-27T11:14:52.347Z,98445.00
2023-01-27T11:17:59.796Z,98444.45
2023-01-27T11:21:06.363Z,98442.96
2023-01-27T11:24:24.083Z,98442.27
2023-01-27T11:27:45.873Z,98443.23
2023-01-27T11:30:59.107Z,98441.45
2023-01-27T11:34:22.993Z,98438.78
2023-01-27T11:37:32.424Z,98436.73
2023-01-27T11:40:38.563Z,98441.94
2023-01-27T11:43:42.414Z,98442.80
2023-01-27T11:46:48.970Z,98445.21
2023-01-27T11:49:54.120Z,98448.70
2023-01-27T11:53:22.369Z,98453.91
2023-01-27T11:56:27.122Z,98457.64
2023-01-27T11:59:36.506Z,98449.80
2023-01-27T12:02:46.290Z,98455.52
2023-01-27T12:05:55.941Z,98457.89
2023-01-27T12:09:00.017Z,98455.61
2023-01-27T12:12:15.825Z,98451.30
2023-01-27T12:15:21.116Z,98449.27
2023-01-27T12:18:24.824Z,98447.52
2023-01-27T12:21:48.209Z,98445.40
2023-01-27T12:24:56.040Z,98442.53
2023-01-27T12:28:03.187Z,98438.52
2023-01-27T12:31:24.864Z,98436.78
2023-01-27T12:34:56.551Z,98434.88
2023-01-27T12:38:11.645Z,98438.52
2023-01-27T12:41:40.476Z,98436.54
2023-01-27T12:44:50.320Z,98436.19
2023-01-27T12:48:01.547Z,98434.66
2023-01-27T12:51:17.137Z,98437.35
2023-01-27T12:54:30.271Z,98438.39
2023-01-27T12:57:33.776Z,98434.39
2023-01-27T13:00:39.138Z,98437.26
2023-01-27T13:03:42.899Z,98435.29
2023-01-27T13:06:58.710Z,98437.19
2023-01-27T13:10:16.000Z,98442.61
2023-01-27T13:13:29.196Z,98447.44
2023-01-27T13:16:32.788Z,98447.64
2023-01-27T13:19:47.090Z,98449.17
2023-01-27T13:22:58.193Z,98450.54
2023-01-27T13:26:04.241Z,98448.04
2023-01-27T13:29:10.945Z,98447.60
2023-01-27T13:32:32.363Z,98443.34
2023-01-27T13:35:41.951Z,98451.27
2023-01-27T13:39:05.879Z,98450.83
2023-01-27T13:42:29.294Z,98457.38
2023-01-27T13:45:53.435Z,98458.92
2023-01-27T13:49:05.196Z,98459.50
2023-01-27T13:52:11.212Z,98466.17
2023-01-27T13:55:15.287Z,98466.64
2023-01-27T13:58:36.750Z,98467.02
2023-01-27T14:01:58.696Z,98466.44
2023-01-27T14:05:02.560Z,98469.03
2023-01-27T14:08:30.614Z,98467.83
2023-01-27T14:11:55.600Z,98466.77
2023-01-27T14:15:21.866Z,98468.92
2023-01-27T14:18:30.989Z,98470.54
2023-01-27T14:21:53.306Z,98469.02
2023-01-27T14:25:42.051Z,98466.43
2023-01-27T14:29:06.157Z,98467.70
2023-01-27T14:32:18.205Z,98464.41
2023-01-27T14:35:30.495Z,98465.15
2023-01-27T14:38:55.700Z,98468.30
2023-01-27T14:42:11.444Z,98471.38
2023-01-27T14:45:35.919Z,98478.75
2023-01-27T14:48:39.176Z,98477.74
2023-01-27T14:51:51.450Z,98478.65
2023-01-27T14:55:06.805Z,98484.52
2023-01-27T14:58:48.678Z,98489.96
2023-01-27T15:02:08.617Z,98496.41
2023-01-27T15:05:22.469Z,98493.16
2023-01-27T15:08:31.541Z,98496.83
2023-01-27T15:12:01.109Z,98503.11
2023-01-27T15:15:16.643Z,98505.75
2023-01-27T15:18:54.640Z,98508.70
2023-01-27T15:22:11.978Z,98514.09
2023-01-27T15:25:19.695Z,98516.66
2023-01-27T15:28:29.272Z,98518.08
2023-01-27T15:31:33.476Z,98520.16
2023-01-27T15:34:36.827Z,98524.06
2023-01-27T15:37:55.781Z,98528.39
2023-01-27T15:41:07.989Z,98530.52
2023-01-27T15:44:18.829Z,98529.16
2023-01-27T15:47:27.675Z,98534.70
2023-01-27T15:50:33.166Z,98533.58
2023-01-27T15:53:42.171Z,98533.70
2023-01-27T15:56:53.660Z,98531.70
2023-01-27T16:00:07.455Z,98535.64
2023-01-27T16:03:33.559Z,98534.75
2023-01-27T16:06:46.868Z,98538.23
2023-01-27T16:09:52.200Z,98541.60
2023-01-27T16:13:23.248Z,98545.43
2023-01-27T16:16:35.236Z,98547.05
2023-01-27T16:19:52.544Z,98546.48
2023-01-27T16:23:11.483Z,98543.66
2023-01-27T16:26:32.936Z,98546.41
2023-01-27T16:29:45.314Z,98544.34
2023-01-27T16:33:04.277Z,98547.30
2023-01-27T16:36:13.464Z,98541.84
2023-01-27T16:39:58.995Z,98540.69
2023-01-27T16:43:08.351Z,98536.48
2023-01-27T16:46:37.162Z,98538.54
2023-01-27T16:49:42.057Z,98534.89
2023-01-27T16:52:45.991Z,98538.63
2023-01-27T16:56:07.892Z,98538.37
2023-01-27T16:59:21.877Z,98538.21
2023-01-27T17:02:28.200Z,98532.70
2023-01-27T17:05:31.562Z,98535.03
2023-01-27T17:08:46.843Z,98534.34
2023-01-27T17:11:50.457Z,98534.12
2023-01-27T17:14:54.091Z,98534.39
2023-01-27T17:17:58.165Z,98530.99
2023-01-27T17:21:02.203Z,98523.84
2023-01-27T17:24:36.948Z,98529.36
2023-01-27T17:27:43.587Z,98532.14
2023-01-27T17:30:48.141Z,98544.67
2023-01-27T17:33:59.857Z,98546.91
2023-01-27T17:37:32.203Z,98553.67
2023-01-27T17:40:39.851Z,98553.69
2023-01-27T17:43:44.670Z,98558.08
2023-01-27T17:46:47.940Z,98559.77
2023-01-27T17:49:51.618Z,98563.29
2023-01-27T17:52:57.189Z,98566.31
2023-01-27T17:56:10.177Z,98567.64
2023-01-27T17:59:20.134Z,98577.13
2023-01-27T18:02:30.442Z,98576.20
2023-01-27T18:05:34.246Z,98584.83
2023-01-27T18:08:37.848Z,98583.65
2023-01-27T18:11:51.919Z,98587.33
2023-01-27T18:14:55.180Z,98593.13
2023-01-27T18:18:00.480Z,98594.84
2023-01-27T18:21:08.404Z,98601.13
2023-01-27T18:24:20.799Z,98601.73
2023-01-27T18:27:27.430Z,98607.16
2023-01-27T18:30:31.119Z,98594.99
2023-01-27T18:33:34.369Z,98602.83
2023-01-27T18:36:39.114Z,98599.52
2023-01-27T18:39:42.452Z,98607.99
2023-01-27T18:42:52.059Z,98615.15
2023-01-27T18:45:55.595Z,98611.65
2023-01-27T18:49:00.015Z,98612.15
2023-01-27T18:52:19.320Z,98610.45
2023-01-27T18:55:28.083Z,98610.50
2023-01-27T18:58:31.315Z,98609.69
2023-01-27T19:01:36.231Z,98611.23
2023-01-27T19:04:39.765Z,98611.81
2023-01-27T19:07:43.198Z,98614.27
2023-01-27T19:10:47.795Z,98610.92
2023-01-27T19:13:51.202Z,98617.74
2023-01-27T19:16:54.708Z,98620.77
2023-01-27T19:19:58.170Z,98612.80
2023-01-27T19:23:01.526Z,98616.41
2023-01-27T19:26:10.094Z,98612.96
2023-01-27T19:29:14.434Z,98615.88
2023-01-27T19:32:17.772Z,98615.73
2023-01-27T19:35:25.691Z,98614.23
2023-01-27T19:38:29.957Z,98618.17
2023-01-27T19:41:34.283Z,98619.69
2023-01-27T19:44:37.428Z,98621.92
2023-01-27T19:47:44.036Z,98620.52
2023-01-27T19:50:47.564Z,98626.63
2023-01-27T19:53:50.771Z,98627.19
2023-01-27T19:56:54.400Z,98634.34
2023-01-27T19:59:57.723Z,98639.49
2023-01-27T20:03:01.949Z,98643.73
2023-01-27T20:06:14.508Z,98642.77
2023-01-27T20:09:17.828Z,98644.27
2023-01-27T20:12:21.110Z,98647.05
2023-01-27T20:15:27.151Z,98645.39
2023-01-27T20:18:31.313Z,98648.86
2023-01-27T20:21:34.728Z,98649.11
2023-01-27T20:24:38.126Z,98648.91
2023-01-27T20:27:42.621Z,98651.41
2023-01-27T20:30:45.996Z,98652.04
2023-01-27T20:33:52.936Z,98656.52
2023-01-27T20:36:56.642Z,98661.09
2023-01-27T20:40:00.041Z,98656.66
2023-01-27T20:43:03.565Z,98660.96
2023-01-27T20:46:11.809Z,98657.92
2023-01-27T20:49:15.147Z,98663.84
2023-01-27T20:52:18.530Z,98660.72
2023-01-27T20:55:22.501Z,98657.25
2023-01-27T20:58:27.058Z,98657.77
2023-01-27T21:01:30.608Z,98658.20
2023-01-27T21:04:34.017Z,98663.80
2023-01-27T21:07:37.378Z,98658.14
2023-01-27T21:10:40.700Z,98659.07
2023-01-27T21:13:44.608Z,98656.92
2023-01-27T21:16:48.236Z,98655.41
2023-01-27T21:19:51.583Z,98658.57
2023-01-27T21:22:55.176Z,98658.79
2023-01-27T21:26:09.255Z,98656.98
2023-01-27T21:29:12.764Z,98657.23
2023-01-27T21:32:16.263Z,98657.05
2023-01-27T21:35:19.671Z,98658.21
2023-01-27T21:38:23.034Z,98659.17
2023-01-27T21:41:45.365Z,98660.48
2023-01-27T21:45:07.421Z,98662.40
2023-01-27T21:48:11.719Z,98661.23
2023-01-27T21:51:15.314Z,98655.99
2023-01-27T21:54:18.576Z,98654.06
2023-01-27T21:57:21.867Z,98647.59
2023-01-27T22:00:27.835Z,98650.91
2023-01-27T22:03:31.277Z,98651.04
2023-01-27T22:06:34.738Z,98647.85
2023-01-27T22:09:38.923Z,98648.52
2023-01-27T22:12:42.651Z,98651.05
2023-01-27T22:15:51.953Z,98644.44
2023-01-27T22:18:55.312Z,98640.27
2023-01-27T22:21:58.614Z,98639.92
2023-01-27T22:25:02.114Z,98642.63
2023-01-27T22:28:05.559Z,98642.30
2023-01-27T22:31:08.912Z,98641.58
2023-01-27T22:34:12.344Z,98643.66
2023-01-27T22:37:15.638Z,98640.16
2023-01-27T22:40:18.944Z,98633.27
2023-01-27T22:43:22.229Z,98637.96
2023-01-27T22:46:25.880Z,98636.17
2023-01-27T22:49:29.173Z,98637.48
2023-01-27T22:52:36.698Z,98638.05
2023-01-27T22:55:40.271Z,98634.34
2023-01-27T22:58:43.511Z,98635.64
2023-01-27T23:01:46.877Z,98632.63
2023-01-27T23:04:50.214Z,98629.42
2023-01-27T23:07:53.631Z,98630.34
2023-01-27T23:11:01.507Z,98630.14
2023-01-27T23:14:04.873Z,98628.23
2023-01-27T23:17:08.374Z,98623.95
2023-01-27T23:20:12.266Z,98621.13
2023-01-27T23:23:16.295Z,98626.00
2023-01-27T23:26:19.752Z,98616.89
2023-01-27T23:29:25.308Z,98615.39
2023-01-27T23:32:29.147Z,98615.86
2023-01-27T23:35:32.395Z,98614.70
2023-01-27T23:38:36.932Z,98615.16
2023-01-27T23:41:40.374Z,98609.97
2023-01-27T23:44:43.719Z,98607.33
2023-01-27T23:47:46.952Z,98607.16
2023-01-27T23:50:50.688Z,98609.81
2023-01-27T23:53:54.081Z,98609.49
2023-01-27T23:56:57.298Z,98615.52
